Washington, District of Columbia
Traffic Map
Current Weather Conditions
Washington, District of Columbia
Broken Clouds
Broken Clouds
34°
Feels Like: 36°
Wind Chill: 34° Ceiling: 25000
Heat Index: 36° Visibility: 10mi
Dew Point: 20° Wind: 0mph
Humidity: 44% Direction: ° ()
Pressure: 30.09in Gusts: 0mph
Raw Report DataKDCA 291952Z 00000KT 10SM FEW055 BKN250 34/20 A3009 RMK AO2 SLP191 T03390200
Traffic Incident Summary
Active as of:
Severity:
Category:
InformationThere was an issue retrieving the traffic information for this location. Please try a different location or try again shortly.
Advertisements
Track Severe Weather on mobile